»·PEaware :: N2631 KAPV-KTNP

N2631 :: KAPV-KTNP

FLIGHT INFORMATION

Flight Status: Arrived
Operator: Privately registered:
United States
More flights under this callsign
Pilot: Jari J. (4222)
Aircraft: CESSNA 207 TURBO STATIONAIR
(C207)
More flights by this aircraft type
Origin: KAPV Apple Valley
United States
Destination: KTNP Twentynine Palms
United States
More flights between these airports :: More routes between these airports
Route: +
File this flight plan on PilotEdge
Remarks:
Altitude:
(Current/Filed)
0ft
Speed:
(Current/Filed)
0kts
Departed: 12-Jul-16 08:10 AM
Arrived: 12-Jul-16 08:51 AM
Distance/Time
Traveled:
67nm/0:41
Distance/Time
To Go:
Arrived

Flight Plot

Page will automatically refresh every two minutes.

Flight plan parsing failed; only flown route is shown


Map Options




Map Legend


Flown Route
Filed Route
Departure Airport
Arrival Airport
Navaid (VOR, NDB)
Fix

Horizontal Profiles

Position Reports

Time Latitude Longitude Heading Altitude Ground
Speed
12-Jul-16 07:58 34.571219 -117.190973 358 3065ft 0kts
12-Jul-16 07:59 34.571219 -117.190973 358 3065ft 0kts
12-Jul-16 08:00 34.571219 -117.190973 358 3065ft 0kts
12-Jul-16 08:01 34.572972 -117.188972 13 3065ft 22kts
12-Jul-16 08:02 34.580290 -117.186423 17 3065ft 30kts
12-Jul-16 08:03 34.587539 -117.183913 12 3065ft 13kts
12-Jul-16 08:04 34.587659 -117.183262 107 3065ft 6kts
12-Jul-16 08:05 34.580309 -117.185047 196 3066ft 72kts
12-Jul-16 08:06 34.556324 -117.186899 196 3214ft 100kts
12-Jul-16 08:07 34.528462 -117.176109 166 3247ft 100kts
12-Jul-16 08:08 34.502931 -117.162805 166 3322ft 99kts
12-Jul-16 08:09 34.477441 -117.149376 166 3369ft 100kts
12-Jul-16 08:10 34.457615 -117.124042 130 3363ft 105kts
12-Jul-16 08:11 34.443786 -117.093627 119 3460ft 99kts
12-Jul-16 08:12 34.433681 -117.062974 119 3597ft 97kts
12-Jul-16 08:13 34.423582 -117.032424 115 3705ft 97kts
12-Jul-16 08:14 34.413973 -117.007616 115 3827ft 97kts
12-Jul-16 08:15 34.406968 -116.970021 101 3991ft 98kts
12-Jul-16 08:16 34.402414 -116.942666 101 4079ft 100kts
12-Jul-16 08:17 34.397037 -116.909584 100 4185ft 100kts
12-Jul-16 08:18 34.391726 -116.876363 100 4260ft 100kts
12-Jul-16 08:19 34.386475 -116.842953 100 4376ft 100kts
12-Jul-16 08:20 34.381299 -116.809436 100 4497ft 101kts
12-Jul-16 08:21 34.375972 -116.775594 107 4650ft 102kts
12-Jul-16 08:22 34.366196 -116.743513 111 4804ft 101kts
12-Jul-16 08:23 34.356382 -116.711359 110 4942ft 101kts
12-Jul-16 08:24 34.346650 -116.679178 110 5135ft 101kts
12-Jul-16 08:25 34.336874 -116.647675 110 5641ft 97kts
12-Jul-16 08:26 34.327019 -116.617431 110 5751ft 96kts
12-Jul-16 08:27 34.317269 -116.587190 109 5837ft 96kts
12-Jul-16 08:28 34.307629 -116.556425 109 5937ft 101kts
12-Jul-16 08:29 34.297830 -116.524352 109 6155ft 100kts
12-Jul-16 08:30 34.289673 -116.492120 106 6358ft 100kts
12-Jul-16 08:31 34.280820 -116.460126 108 6766ft 100kts
12-Jul-16 08:32 34.271820 -116.428291 108 7315ft 101kts
12-Jul-16 08:33 34.260200 -116.388680 110 7375ft 139kts
12-Jul-16 08:34 34.248377 -116.347175 110 7426ft 129kts
12-Jul-16 08:35 34.235929 -116.303686 110 7422ft 138kts
12-Jul-16 08:36 34.222815 -116.257889 110 7377ft 136kts
12-Jul-16 08:37 34.209866 -116.212621 109 6919ft 149kts
12-Jul-16 08:38 34.196117 -116.164744 109 6717ft 151kts
12-Jul-16 08:39 34.182545 -116.117455 109 6197ft 147kts
12-Jul-16 08:40 34.169108 -116.070720 108 5455ft 142kts
12-Jul-16 08:41 34.158413 -116.028303 96 5219ft 132kts
12-Jul-16 08:42 34.156057 -115.981772 91 3919ft 142kts
12-Jul-16 08:43 34.157198 -115.939165 84 3443ft 118kts
12-Jul-16 08:44 34.146881 -115.916884 190 2599ft 81kts
12-Jul-16 08:45 34.134443 -115.934171 269 1926ft 69kts
12-Jul-16 08:46 34.134459 -115.947302 322 1890ft 4kts
12-Jul-16 08:47 34.135218 -115.944541 88 1890ft 18kts
12-Jul-16 08:48 34.135982 -115.941819 272 1890ft 2kts
12-Jul-16 08:49 34.135870 -115.941876 175 1890ft 0kts
12-Jul-16 08:50 34.135870 -115.941876 175 1890ft 0kts

Navigation Log

Ident Type
Flight plan parsing failed, navigation log unavailable